createdAt,value
2019-03-26T00:03:29.931Z,10.52
2019-03-26T00:09:24.960Z,10.29
2019-03-26T00:15:19.947Z,3.95
2019-03-26T00:21:14.934Z,5.81
2019-03-26T00:27:09.938Z,10.44
2019-03-26T00:33:04.982Z,7.35
2019-03-26T00:38:59.959Z,6.02
2019-03-26T00:44:54.946Z,5.06
2019-03-26T00:50:49.955Z,4.23
2019-03-26T00:56:44.978Z,3.9
2019-03-26T01:02:39.949Z,3.54
2019-03-26T01:08:35.001Z,3.73
2019-03-26T01:14:30.035Z,6.26
2019-03-26T01:20:24.988Z,5.19
2019-03-26T01:26:20.020Z,4.39
2019-03-26T01:32:15.015Z,4.75
2019-03-26T01:38:09.981Z,4.36
2019-03-26T01:44:05.011Z,6.52
2019-03-26T01:49:59.998Z,2.62
2019-03-26T01:55:54.997Z,5.34
2019-03-26T02:01:49.975Z,7.51
2019-03-26T02:07:45.015Z,4.25
2019-03-26T02:13:39.991Z,3.85
2019-03-26T02:19:35.010Z,3.87
2019-03-26T02:25:30.014Z,4.43
2019-03-26T02:31:25.006Z,2.95
2019-03-26T02:37:20.000Z,3.88
2019-03-26T02:43:15.019Z,2.17
2019-03-26T02:49:10.065Z,3.95
2019-03-26T02:55:05.021Z,2.96
2019-03-26T03:01:00.032Z,2.66
2019-03-26T03:06:55.081Z,1.86
2019-03-26T03:12:50.036Z,3.6
2019-03-26T03:18:45.061Z,3
2019-03-26T03:24:40.042Z,2.6
2019-03-26T03:30:35.050Z,1.67
2019-03-26T03:36:30.060Z,2.17
2019-03-26T03:42:25.055Z,2.87
2019-03-26T03:48:20.043Z,2.85
2019-03-26T03:54:15.059Z,1.45
2019-03-26T04:00:10.061Z,1.83
2019-03-26T04:06:09.263Z,1.31
2019-03-26T04:12:00.063Z,1.29
2019-03-26T04:17:55.061Z,1.45
2019-03-26T04:23:50.086Z,1.74
2019-03-26T04:29:45.059Z,1.44
2019-03-26T04:35:40.098Z,0.98
2019-03-26T04:41:35.086Z,1.12
2019-03-26T04:47:30.092Z,1.61
2019-03-26T04:53:25.093Z,1.51
2019-03-26T04:59:20.116Z,0.87
2019-03-26T05:05:15.159Z,1.12
2019-03-26T05:11:10.090Z,1.1
2019-03-26T05:17:05.112Z,1.31
2019-03-26T05:23:00.128Z,0.62
2019-03-26T05:28:55.116Z,0.72
2019-03-26T05:34:50.132Z,0.83
2019-03-26T05:40:45.132Z,0.89
2019-03-26T05:46:40.178Z,0.95
2019-03-26T05:52:35.097Z,1.24
2019-03-26T05:58:30.140Z,1.17
2019-03-26T06:04:25.126Z,0.91
2019-03-26T06:10:20.124Z,1.03
2019-03-26T06:16:15.166Z,1.01
2019-03-26T06:22:10.131Z,1.21
2019-03-26T06:28:05.129Z,1.18
2019-03-26T06:34:00.115Z,0.93
2019-03-26T06:39:58.250Z,1.24
2019-03-26T06:45:50.147Z,1.12
2019-03-26T06:51:45.132Z,1.18
2019-03-26T06:57:40.172Z,1.17
2019-03-26T07:03:35.155Z,1.51
2019-03-26T07:09:30.154Z,1.61
2019-03-26T07:15:25.154Z,0.98
2019-03-26T07:21:20.158Z,1.5
2019-03-26T07:27:15.179Z,1.3
2019-03-26T07:33:10.227Z,0.8
2019-03-26T07:39:05.161Z,1.85
2019-03-26T07:45:00.451Z,1.7
2019-03-26T07:50:55.179Z,1.33
2019-03-26T07:56:50.205Z,1.05
2019-03-26T08:02:45.207Z,1.01
2019-03-26T08:08:40.755Z,0.87
2019-03-26T08:14:35.225Z,1.16
2019-03-26T08:20:30.196Z,1.1
2019-03-26T08:26:25.217Z,1.17
2019-03-26T08:32:20.260Z,0.96
2019-03-26T08:38:15.254Z,0.97
2019-03-26T08:44:10.235Z,1.13
2019-03-26T08:50:05.234Z,1
2019-03-26T08:56:00.246Z,0.95
2019-03-26T09:01:55.220Z,0.97
2019-03-26T09:07:50.240Z,1.03
2019-03-26T09:13:45.251Z,0.86
2019-03-26T09:19:40.267Z,1.02
2019-03-26T09:25:35.265Z,1.23
2019-03-26T09:31:30.241Z,0.94
2019-03-26T09:37:25.233Z,1.03
2019-03-26T09:43:20.268Z,1.14
2019-03-26T09:49:15.247Z,0.9
2019-03-26T09:55:10.279Z,1.1
2019-03-26T10:01:05.249Z,1.1
2019-03-26T10:07:00.270Z,1.09
2019-03-26T10:12:55.253Z,1.15
2019-03-26T10:18:50.249Z,1.05
2019-03-26T10:24:45.274Z,0.91
2019-03-26T10:30:40.276Z,1.01
2019-03-26T10:36:35.277Z,0.96
2019-03-26T10:42:30.282Z,0.95
2019-03-26T10:48:25.282Z,1.2
2019-03-26T10:54:20.282Z,1.12
2019-03-26T11:00:15.280Z,1.54
2019-03-26T11:06:10.302Z,1.45
2019-03-26T11:12:05.337Z,1.79
2019-03-26T11:18:00.321Z,1.8
2019-03-26T11:23:55.306Z,1.91
2019-03-26T11:29:50.284Z,2
2019-03-26T11:35:45.289Z,1.59
2019-03-26T11:41:40.321Z,1.74
2019-03-26T11:47:35.317Z,2.05
2019-03-26T11:53:30.349Z,1.76
2019-03-26T11:59:25.319Z,1.65
2019-03-26T12:05:20.377Z,1.56
2019-03-26T12:11:15.325Z,1.61
2019-03-26T12:17:10.324Z,1.62
2019-03-26T12:23:05.321Z,1.54
2019-03-26T12:29:00.324Z,1.64
2019-03-26T12:34:55.349Z,1.39
2019-03-26T12:40:50.446Z,1.28
2019-03-26T12:46:45.355Z,1.47
2019-03-26T12:52:40.344Z,1.17
2019-03-26T12:58:36.502Z,1.39
2019-03-26T13:04:30.395Z,1.29
2019-03-26T13:10:25.343Z,1.49
2019-03-26T13:16:20.404Z,1.23
2019-03-26T13:22:15.382Z,1.13
2019-03-26T13:28:10.358Z,1.19
2019-03-26T13:34:05.379Z,1.07
2019-03-26T13:40:00.405Z,1.11
2019-03-26T13:45:55.372Z,0.92
2019-03-26T13:51:50.371Z,1.13
2019-03-26T13:57:45.400Z,1.43
2019-03-26T14:03:40.405Z,1.43
2019-03-26T14:09:35.415Z,1.38
2019-03-26T14:15:30.386Z,1.88
2019-03-26T14:21:25.425Z,1.66
2019-03-26T14:27:20.396Z,1.74
2019-03-26T14:33:15.405Z,1.32
2019-03-26T14:39:10.400Z,1.86
2019-03-26T14:45:05.441Z,1.35
2019-03-26T14:51:00.409Z,1.37
2019-03-26T14:56:55.427Z,1.23
2019-03-26T15:02:50.425Z,1.4
2019-03-26T15:08:45.419Z,1.38
2019-03-26T15:14:40.418Z,1.97
2019-03-26T15:20:35.418Z,1.65
2019-03-26T15:26:30.435Z,1.3
2019-03-26T15:32:25.437Z,1.31
2019-03-26T15:38:20.470Z,1.39
2019-03-26T15:44:15.451Z,1.69
2019-03-26T15:50:10.480Z,1.33
2019-03-26T15:56:05.475Z,1.2
2019-03-26T16:02:00.448Z,1.37
2019-03-26T16:07:55.448Z,1.29
2019-03-26T16:13:50.478Z,0.95
2019-03-26T16:19:45.496Z,1.07
2019-03-26T16:25:40.514Z,0.95
2019-03-26T16:31:35.484Z,1.19
2019-03-26T16:37:30.463Z,0.9
2019-03-26T16:43:25.467Z,1.2
2019-03-26T16:49:20.461Z,1.42
2019-03-26T16:55:15.470Z,1.03
2019-03-26T17:01:10.497Z,1.45
2019-03-26T17:07:05.514Z,0.92
2019-03-26T17:13:00.522Z,0.8
2019-03-26T17:18:55.518Z,0.98
2019-03-26T17:24:50.511Z,1.11
2019-03-26T17:30:45.521Z,1.6
2019-03-26T17:36:40.507Z,1.13
2019-03-26T17:42:35.507Z,0.88
2019-03-26T17:48:30.525Z,1.43
2019-03-26T17:54:25.547Z,1.25
2019-03-26T18:00:20.498Z,1.43
2019-03-26T18:06:15.515Z,1.34
2019-03-26T18:12:10.514Z,1.46
2019-03-26T18:18:05.523Z,1.98
2019-03-26T18:24:00.523Z,1.52
2019-03-26T18:29:55.546Z,2.7
2019-03-26T18:35:50.575Z,2.13
2019-03-26T18:41:45.571Z,2.05
2019-03-26T18:47:40.538Z,1.1
2019-03-26T18:53:35.561Z,1.2
2019-03-26T18:59:30.575Z,1.11
2019-03-26T19:05:25.557Z,1.13
2019-03-26T19:11:20.566Z,0.98
2019-03-26T19:17:15.545Z,1.06
2019-03-26T19:23:10.564Z,0.93
2019-03-26T19:29:05.599Z,1.14
2019-03-26T19:35:00.561Z,1.77
2019-03-26T19:40:55.581Z,1.24
2019-03-26T19:46:50.558Z,1.27
2019-03-26T19:52:45.623Z,0.93
2019-03-26T19:58:40.566Z,1.25
2019-03-26T20:04:35.565Z,0.99
2019-03-26T20:10:30.582Z,1.18
2019-03-26T20:16:27.242Z,1.16
2019-03-26T20:22:20.586Z,1.18
2019-03-26T20:28:15.585Z,1.13
2019-03-26T20:34:10.589Z,1
2019-03-26T20:40:05.617Z,1.21
2019-03-26T20:46:00.591Z,1.28
2019-03-26T20:51:55.675Z,1.69
2019-03-26T20:57:50.644Z,1.11
2019-03-26T21:03:45.612Z,1.24
2019-03-26T21:09:40.608Z,1.22
2019-03-26T21:15:35.647Z,1.22
2019-03-26T21:21:30.652Z,1.16
2019-03-26T21:27:25.738Z,1.4
2019-03-26T21:33:20.648Z,1.29
2019-03-26T21:39:15.665Z,1.16
2019-03-26T21:45:10.678Z,1.21
2019-03-26T21:51:05.630Z,1.2
2019-03-26T21:57:00.643Z,1.27
2019-03-26T22:02:55.650Z,1.2
2019-03-26T22:08:50.643Z,1.47
2019-03-26T22:14:45.633Z,1.14
2019-03-26T22:20:40.656Z,1.24
2019-03-26T22:26:35.769Z,1.03
2019-03-26T22:32:30.652Z,1.32
2019-03-26T22:38:25.654Z,1.33
2019-03-26T22:44:30.705Z,1.12
2019-03-26T22:50:15.655Z,1.13
2019-03-26T22:56:10.652Z,1.27
2019-03-26T23:02:05.674Z,1.1
2019-03-26T23:08:00.687Z,1.1
2019-03-26T23:13:55.690Z,1.32
2019-03-26T23:19:50.721Z,0.97
2019-03-26T23:25:45.702Z,1.07
2019-03-26T23:31:40.726Z,1.03
2019-03-26T23:37:35.739Z,1.18
2019-03-26T23:43:30.729Z,1.16
2019-03-26T23:49:25.711Z,1.27
2019-03-26T23:55:20.719Z,1.39
